createdAt,value
2018-05-23T00:01:58.912Z,101755.16
2018-05-23T00:04:26.317Z,101747.83
2018-05-23T00:06:53.737Z,101753.12
2018-05-23T00:09:21.226Z,101751.83
2018-05-23T00:11:48.685Z,101752.96
2018-05-23T00:14:16.089Z,101759.95
2018-05-23T00:16:43.584Z,101765.54
2018-05-23T00:19:10.996Z,101762.56
2018-05-23T00:21:38.494Z,101766.42
2018-05-23T00:24:05.904Z,101763.11
2018-05-23T00:26:33.312Z,101775.38
2018-05-23T00:29:00.716Z,101777.17
2018-05-23T00:31:28.138Z,101777.75
2018-05-23T00:33:55.568Z,101775.78
2018-05-23T00:36:22.981Z,101780.23
2018-05-23T00:38:50.387Z,101780.98
2018-05-23T00:41:17.863Z,101783.36
2018-05-23T00:43:45.239Z,101786.41
2018-05-23T00:46:12.656Z,101793.19
2018-05-23T00:48:40.074Z,101797.19
2018-05-23T00:51:07.489Z,101796.41
2018-05-23T00:53:34.916Z,101791.80
2018-05-23T00:56:02.372Z,101793.19
2018-05-23T00:58:29.788Z,101792.24
2018-05-23T01:00:57.200Z,101800.84
2018-05-23T01:03:24.621Z,101803.77
2018-05-23T01:05:52.036Z,101801.30
2018-05-23T01:08:19.544Z,101805.11
2018-05-23T01:10:46.978Z,101807.31
2018-05-23T01:13:14.393Z,101814.67
2018-05-23T01:15:41.808Z,101817.44
2018-05-23T01:18:09.256Z,101821.69
2018-05-23T01:20:36.713Z,101815.56
2018-05-23T01:23:04.120Z,101816.52
2018-05-23T01:25:31.621Z,101812.87
2018-05-23T01:27:59.080Z,101819.65
2018-05-23T01:30:26.493Z,101814.33
2018-05-23T01:32:53.901Z,101816.16
2018-05-23T01:35:21.353Z,101817.43
2018-05-23T01:37:48.815Z,101818.44
2018-05-23T01:40:16.260Z,101821.66
2018-05-23T01:42:43.668Z,101828.43
2018-05-23T01:45:11.075Z,101835.95
2018-05-23T01:47:38.492Z,101838.34
2018-05-23T01:50:05.928Z,101833.31
2018-05-23T01:52:33.436Z,101832.17
2018-05-23T01:55:00.849Z,101839.56
2018-05-23T01:57:28.252Z,101836.48
2018-05-23T01:59:55.664Z,101841.16
2018-05-23T02:02:23.156Z,101835.43
2018-05-23T02:04:50.609Z,101839.31
2018-05-23T02:07:18.020Z,101838.02
2018-05-23T02:09:45.421Z,101837.94
2018-05-23T02:12:12.840Z,101842.20
2018-05-23T02:14:40.325Z,101842.06
2018-05-23T02:17:07.753Z,101838.48
2018-05-23T02:19:35.156Z,101840.30
2018-05-23T02:22:02.589Z,101839.59
2018-05-23T02:24:30.013Z,101842.05
2018-05-23T02:26:57.420Z,101841.98
2018-05-23T02:29:24.860Z,101844.69
2018-05-23T02:31:52.303Z,101845.44
2018-05-23T02:34:19.714Z,101841.27
2018-05-23T02:36:47.174Z,101850.75
2018-05-23T02:39:14.585Z,101845.75
2018-05-23T02:41:42.001Z,101850.27
2018-05-23T02:44:09.495Z,101852.98
2018-05-23T02:46:36.904Z,101859.86
2018-05-23T02:49:04.317Z,101854.23
2018-05-23T02:51:31.734Z,101858.14
2018-05-23T02:53:59.208Z,101860.70
2018-05-23T02:56:26.629Z,101861.48
2018-05-23T02:58:54.039Z,101874.00
2018-05-23T03:01:21.450Z,101870.99
2018-05-23T03:03:48.856Z,101872.31
2018-05-23T03:06:16.277Z,101873.03
2018-05-23T03:08:43.688Z,101881.37
2018-05-23T03:11:11.143Z,101883.93
2018-05-23T03:13:38.543Z,101886.04
2018-05-23T03:16:05.966Z,101898.89
2018-05-23T03:18:33.388Z,101889.84
2018-05-23T03:21:00.805Z,101894.24
2018-05-23T03:23:28.212Z,101902.09
2018-05-23T03:25:55.628Z,101904.99
2018-05-23T03:28:23.036Z,101906.95
2018-05-23T03:30:50.466Z,101914.23
2018-05-23T03:33:17.899Z,101913.48
2018-05-23T03:35:45.302Z,101913.48
2018-05-23T03:38:12.725Z,101910.93
2018-05-23T03:40:40.130Z,101915.36
2018-05-23T03:43:07.550Z,101912.32
2018-05-23T03:45:34.962Z,101919.12
2018-05-23T03:48:02.375Z,101925.16
2018-05-23T03:50:29.776Z,101933.66
2018-05-23T03:52:57.221Z,101931.62
2018-05-23T03:55:24.794Z,101932.93
2018-05-23T03:57:52.117Z,101934.87
2018-05-23T04:00:31.517Z,101943.38
2018-05-23T04:03:10.597Z,101945.89
2018-05-23T04:05:50.956Z,101953.51
2018-05-23T04:08:18.367Z,101953.09
2018-05-23T04:10:45.781Z,101954.77
2018-05-23T04:13:13.196Z,101957.96
2018-05-23T04:15:40.599Z,101959.83
2018-05-23T04:18:08.015Z,101959.33
2018-05-23T04:20:35.433Z,101962.52
2018-05-23T04:23:02.840Z,101965.36
2018-05-23T04:25:30.297Z,101965.15
2018-05-23T04:27:57.716Z,101968.88
2018-05-23T04:30:25.112Z,101967.98
2018-05-23T04:32:52.544Z,101970.91
2018-05-23T04:35:19.956Z,101971.58
2018-05-23T04:37:47.369Z,101976.72
2018-05-23T04:40:14.775Z,101975.34
2018-05-23T04:42:42.187Z,101980.64
2018-05-23T04:45:09.596Z,101971.45
2018-05-23T04:47:37.029Z,101983.22
2018-05-23T04:50:04.540Z,101979.77
2018-05-23T04:52:31.990Z,101981.70
2018-05-23T04:54:59.409Z,101978.72
2018-05-23T04:57:26.812Z,101979.52
2018-05-23T04:59:54.230Z,101989.95
2018-05-23T05:02:21.636Z,101989.18
2018-05-23T05:04:49.058Z,101995.56
2018-05-23T05:07:16.513Z,102003.08
2018-05-23T05:09:43.881Z,102004.13
2018-05-23T05:12:11.284Z,102002.23
2018-05-23T05:14:38.695Z,102000.13
2018-05-23T05:17:06.106Z,102009.22
2018-05-23T05:19:33.523Z,102013.63
2018-05-23T05:22:00.963Z,102025.51
2018-05-23T05:24:28.373Z,102029.28
2018-05-23T05:26:55.883Z,102028.42
2018-05-23T05:29:23.304Z,102033.84
2018-05-23T05:31:50.723Z,102040.02
2018-05-23T05:34:18.136Z,102042.63
2018-05-23T05:36:45.586Z,102046.94
2018-05-23T05:39:13.009Z,102041.33
2018-05-23T05:41:40.412Z,102048.23
2018-05-23T05:44:07.839Z,102055.26
2018-05-23T05:46:35.248Z,102056.86
2018-05-23T05:49:02.760Z,102056.11
2018-05-23T05:51:30.205Z,102062.03
2018-05-23T05:53:57.664Z,102063.46
2018-05-23T05:56:25.077Z,102063.53
2018-05-23T05:58:52.585Z,102063.13
2018-05-23T06:01:20.031Z,102068.86
2018-05-23T06:03:47.493Z,102067.58
2018-05-23T06:06:14.900Z,102071.02
2018-05-23T06:08:42.309Z,102073.66
2018-05-23T06:11:09.725Z,102075.58
2018-05-23T06:13:37.132Z,102075.47
2018-05-23T06:16:04.568Z,102080.11
2018-05-23T06:18:31.978Z,102087.14
2018-05-23T06:20:59.475Z,102083.00
2018-05-23T06:23:26.888Z,102084.84
2018-05-23T06:25:54.411Z,102086.73
2018-05-23T06:28:21.849Z,102091.76
2018-05-23T06:30:49.261Z,102094.97
2018-05-23T06:33:16.680Z,102099.77
2018-05-23T06:35:44.109Z,102093.12
2018-05-23T06:38:11.512Z,102101.67
2018-05-23T06:40:39.012Z,102100.52
2018-05-23T06:43:06.477Z,102104.06
2018-05-23T06:45:33.889Z,102098.89
2018-05-23T06:48:01.310Z,102097.06
2018-05-23T06:50:28.721Z,102095.86
2018-05-23T06:52:56.160Z,102105.27
2018-05-23T06:55:23.650Z,102107.00
2018-05-23T06:57:51.057Z,102105.84
2018-05-23T07:00:18.553Z,102110.21
2018-05-23T07:02:45.958Z,102114.98
2018-05-23T07:05:13.381Z,102116.23
2018-05-23T07:07:40.829Z,102118.83
2018-05-23T07:10:08.250Z,102122.98
2018-05-23T07:12:35.664Z,102113.99
2018-05-23T07:15:03.095Z,102123.09
2018-05-23T07:17:30.512Z,102125.69
2018-05-23T07:19:58.004Z,102124.34
2018-05-23T07:22:25.420Z,102128.75
2018-05-23T07:24:52.849Z,102129.54
2018-05-23T07:27:20.256Z,102126.84
2018-05-23T07:29:47.685Z,102134.70
2018-05-23T07:32:15.177Z,102127.50
2018-05-23T07:34:42.648Z,102133.94
2018-05-23T07:37:10.043Z,102135.73
2018-05-23T07:39:37.536Z,102133.88
2018-05-23T07:42:04.996Z,102143.62
2018-05-23T07:44:32.417Z,102145.75
2018-05-23T07:46:59.852Z,102148.70
2018-05-23T07:49:27.265Z,102152.67
2018-05-23T07:51:54.693Z,102151.94
2018-05-23T07:54:22.108Z,102149.61
2018-05-23T07:56:49.534Z,102146.37
2018-05-23T07:59:16.952Z,102157.44
2018-05-23T08:01:44.446Z,102155.31
2018-05-23T08:04:11.895Z,102152.83
2018-05-23T08:06:39.349Z,102166.44
2018-05-23T08:09:06.772Z,102160.67
2018-05-23T08:11:34.196Z,102159.52
2018-05-23T08:14:01.608Z,102155.78
2018-05-23T08:16:29.037Z,102164.92
2018-05-23T08:18:56.456Z,102160.34
2018-05-23T08:21:23.889Z,102161.80
2018-05-23T08:23:51.338Z,102159.59
2018-05-23T08:26:18.753Z,102153.99
2018-05-23T08:28:46.256Z,102162.52
2018-05-23T08:31:13.680Z,102162.30
2018-05-23T08:33:41.095Z,102166.34
2018-05-23T08:36:08.525Z,102169.98
2018-05-23T08:38:35.956Z,102163.46
2018-05-23T08:41:03.376Z,102174.78
2018-05-23T08:43:30.800Z,102175.52
2018-05-23T08:45:58.304Z,102175.50
2018-05-23T08:48:25.795Z,102179.22
2018-05-23T08:50:53.213Z,102172.64
2018-05-23T08:53:20.731Z,102171.13
2018-05-23T08:55:48.211Z,102165.86
2018-05-23T08:58:15.702Z,102175.68
2018-05-23T09:00:43.236Z,102172.05
2018-05-23T09:03:10.745Z,102169.59
2018-05-23T09:05:38.232Z,102176.14
2018-05-23T09:08:05.652Z,102178.29
2018-05-23T09:10:33.213Z,102182.45
2018-05-23T09:13:00.776Z,102190.94
2018-05-23T09:15:28.215Z,102187.61
2018-05-23T09:17:55.641Z,102188.59
2018-05-23T09:20:23.232Z,102185.22
2018-05-23T09:22:50.662Z,102181.05
2018-05-23T09:25:18.080Z,102187.88
2018-05-23T09:27:45.496Z,102194.45
2018-05-23T09:30:12.913Z,102187.29
2018-05-23T09:32:40.348Z,102187.77
2018-05-23T09:35:07.780Z,102187.54
2018-05-23T09:37:35.218Z,102185.44
2018-05-23T09:40:02.639Z,102182.87
2018-05-23T09:42:30.073Z,102188.09
2018-05-23T09:44:57.497Z,102188.88
2018-05-23T09:47:24.928Z,102188.55
2018-05-23T09:49:52.362Z,102188.84
2018-05-23T09:52:19.792Z,102187.64
2018-05-23T09:54:48.282Z,102190.95
2018-05-23T09:57:15.712Z,102187.67
2018-05-23T09:59:43.132Z,102192.67
2018-05-23T10:02:10.559Z,102191.91
2018-05-23T10:04:37.999Z,102198.65
2018-05-23T10:07:05.420Z,102198.41
2018-05-23T10:09:32.914Z,102196.61
2018-05-23T10:12:00.353Z,102195.05
2018-05-23T10:14:27.793Z,102195.55
2018-05-23T10:16:56.418Z,102204.31
2018-05-23T10:19:23.860Z,102200.81
2018-05-23T10:21:51.284Z,102202.69
2018-05-23T10:24:18.728Z,102207.50
2018-05-23T10:26:46.152Z,102204.63
2018-05-23T10:29:13.577Z,102201.17
2018-05-23T10:31:41.016Z,102206.59
2018-05-23T10:34:08.992Z,102215.00
2018-05-23T10:36:36.440Z,102208.59
2018-05-23T10:39:03.920Z,102211.74
2018-05-23T10:41:31.289Z,102217.54
2018-05-23T10:43:58.704Z,102212.50
2018-05-23T10:46:26.140Z,102220.17
2018-05-23T10:48:53.552Z,102214.31
2018-05-23T10:51:20.989Z,102212.65
2018-05-23T10:53:48.408Z,102216.47
2018-05-23T10:56:15.836Z,102220.42
2018-05-23T10:58:43.303Z,102220.04
2018-05-23T11:01:10.731Z,102227.41
2018-05-23T11:03:38.166Z,102225.80
2018-05-23T11:06:05.577Z,102227.88
2018-05-23T11:08:33.007Z,102229.14
2018-05-23T11:11:00.424Z,102231.97
2018-05-23T11:13:27.861Z,102235.77
2018-05-23T11:15:55.280Z,102223.25
2018-05-23T11:18:22.703Z,102228.62
2018-05-23T11:20:50.122Z,102220.39
2018-05-23T11:23:17.539Z,102225.45
2018-05-23T11:25:44.986Z,102225.86
2018-05-23T11:28:12.465Z,102220.63
2018-05-23T11:30:39.879Z,102229.63
2018-05-23T11:33:07.316Z,102229.55
2018-05-23T11:35:34.730Z,102225.80
2018-05-23T11:38:02.164Z,102230.77
2018-05-23T11:40:29.580Z,102225.84
2018-05-23T11:42:57.083Z,102228.62
2018-05-23T11:45:24.496Z,102219.58
2018-05-23T11:47:51.924Z,102222.47
2018-05-23T11:50:19.349Z,102221.08
2018-05-23T11:52:46.796Z,102227.64
2018-05-23T11:55:14.204Z,102222.28
2018-05-23T11:57:41.632Z,102220.58
2018-05-23T12:00:09.044Z,102215.16
2018-05-23T12:02:36.472Z,102209.37
2018-05-23T12:05:03.893Z,102213.78
2018-05-23T12:07:31.318Z,102227.64
2018-05-23T12:09:58.736Z,102212.80
2018-05-23T12:12:26.170Z,102207.34
2018-05-23T12:14:53.589Z,102210.77
2018-05-23T12:17:21.009Z,102206.23
2018-05-23T12:19:48.420Z,102215.54
2018-05-23T12:22:15.949Z,102220.55
2018-05-23T12:24:43.378Z,102213.31
2018-05-23T12:27:10.836Z,102215.54
2018-05-23T12:29:38.253Z,102207.16
2018-05-23T12:32:05.665Z,102205.94
2018-05-23T12:34:33.098Z,102212.72
2018-05-23T12:37:00.528Z,102208.98
2018-05-23T12:39:27.957Z,102200.78
2018-05-23T12:41:55.368Z,102203.92
2018-05-23T12:44:22.803Z,102202.80
2018-05-23T12:46:50.245Z,102207.49
2018-05-23T12:49:17.670Z,102210.52
2018-05-23T12:51:45.100Z,102209.13
2018-05-23T12:54:12.567Z,102210.93
2018-05-23T12:56:40.031Z,102215.70
2018-05-23T12:59:07.485Z,102215.45
2018-05-23T13:01:34.903Z,102198.64
2018-05-23T13:04:02.393Z,102205.77
2018-05-23T13:06:29.816Z,102212.61
2018-05-23T13:08:57.312Z,102210.56
2018-05-23T13:11:24.771Z,102200.06
2018-05-23T13:13:52.223Z,102210.95
2018-05-23T13:16:19.636Z,102213.09
2018-05-23T13:18:47.120Z,102209.63
2018-05-23T13:21:14.532Z,102209.08
2018-05-23T13:23:41.953Z,102210.55
2018-05-23T13:26:09.392Z,102210.13
2018-05-23T13:28:36.826Z,102199.41
2018-05-23T13:31:04.236Z,102198.12
2018-05-23T13:33:31.662Z,102206.66
2018-05-23T13:35:59.076Z,102190.73
2018-05-23T13:38:26.500Z,102198.73
2018-05-23T13:40:54.016Z,102203.09
2018-05-23T13:43:21.448Z,102203.02
2018-05-23T13:45:48.855Z,102200.88
2018-05-23T13:48:16.283Z,102196.94
2018-05-23T13:50:43.698Z,102191.60
2018-05-23T13:53:11.129Z,102200.72
2018-05-23T13:55:38.547Z,102193.75
2018-05-23T13:58:05.984Z,102195.13
2018-05-23T14:00:33.400Z,102202.58
2018-05-23T14:03:00.824Z,102206.69
2018-05-23T14:05:28.240Z,102202.31
2018-05-23T14:07:55.684Z,102197.88
2018-05-23T14:10:23.109Z,102188.91
2018-05-23T14:12:50.540Z,102188.36
2018-05-23T14:15:17.951Z,102185.54
2018-05-23T14:17:45.384Z,102177.02
2018-05-23T14:20:12.806Z,102186.19
2018-05-23T14:22:40.229Z,102181.61
2018-05-23T14:25:07.662Z,102183.31
2018-05-23T14:27:35.076Z,102176.93
2018-05-23T14:30:02.516Z,102194.59
2018-05-23T14:32:29.944Z,102194.06
2018-05-23T14:34:57.364Z,102180.63
2018-05-23T14:37:24.782Z,102188.12
2018-05-23T14:39:52.221Z,102188.78
2018-05-23T14:42:19.627Z,102181.27
2018-05-23T14:44:47.061Z,102190.34
2018-05-23T14:47:14.482Z,102194.65
2018-05-23T14:49:41.925Z,102191.66
2018-05-23T14:52:09.348Z,102182.28
2018-05-23T14:54:36.773Z,102186.10
2018-05-23T14:57:04.196Z,102192.91
2018-05-23T14:59:31.620Z,102183.52
2018-05-23T15:01:59.045Z,102191.80
2018-05-23T15:04:26.484Z,102198.42
2018-05-23T15:06:53.901Z,102196.58
2018-05-23T15:09:21.324Z,102199.42
2018-05-23T15:11:48.747Z,102201.36
2018-05-23T15:14:16.188Z,102195.58
2018-05-23T15:16:43.596Z,102190.91
2018-05-23T15:19:11.012Z,102200.03
2018-05-23T15:21:38.441Z,102194.14
2018-05-23T15:24:05.863Z,102193.66
2018-05-23T15:26:33.280Z,102197.59
2018-05-23T15:29:00.704Z,102195.77
2018-05-23T15:31:28.212Z,102194.16
2018-05-23T15:33:55.553Z,102194.92
2018-05-23T15:36:22.969Z,102195.13
2018-05-23T15:38:50.397Z,102197.27
2018-05-23T15:41:17.857Z,102192.66
2018-05-23T15:43:45.286Z,102195.42
2018-05-23T15:46:12.701Z,102201.16
2018-05-23T15:48:40.121Z,102198.70
2018-05-23T15:51:07.559Z,102198.67
2018-05-23T15:53:34.965Z,102197.88
2018-05-23T15:56:02.406Z,102202.73
2018-05-23T15:58:29.821Z,102196.95
2018-05-23T16:00:57.253Z,102197.84
2018-05-23T16:03:24.673Z,102195.89
2018-05-23T16:05:52.097Z,102201.62
2018-05-23T16:08:19.514Z,102202.06
2018-05-23T16:10:46.934Z,102207.53
2018-05-23T16:13:14.356Z,102204.70
2018-05-23T16:15:41.772Z,102206.75
2018-05-23T16:18:09.214Z,102210.40
2018-05-23T16:20:36.667Z,102203.95
2018-05-23T16:23:04.044Z,102214.09
2018-05-23T16:25:31.488Z,102206.63
2018-05-23T16:27:58.918Z,102211.09
2018-05-23T16:30:26.342Z,102212.11
2018-05-23T16:32:53.761Z,102209.08
2018-05-23T16:35:21.187Z,102214.76
2018-05-23T16:37:48.606Z,102218.98
2018-05-23T16:40:16.036Z,102207.45
2018-05-23T16:42:43.447Z,102210.27
2018-05-23T16:45:10.888Z,102203.80
2018-05-23T16:47:38.306Z,102203.81
2018-05-23T16:50:05.736Z,102205.02
2018-05-23T16:52:33.156Z,102204.20
2018-05-23T16:55:09.265Z,102209.05
2018-05-23T16:57:46.971Z,102198.32
2018-05-23T17:00:14.612Z,102213.11
2018-05-23T17:02:42.855Z,102214.50
2018-05-23T17:05:10.276Z,102218.14
2018-05-23T17:07:39.052Z,102213.48
2018-05-23T17:10:06.475Z,102223.97
2018-05-23T17:12:34.057Z,102225.76
2018-05-23T17:15:01.413Z,102226.35
2018-05-23T17:17:28.844Z,102224.30
2018-05-23T17:19:56.265Z,102228.09
2018-05-23T17:22:23.697Z,102231.94
2018-05-23T17:24:51.877Z,102233.16
2018-05-23T17:27:19.347Z,102228.91
2018-05-23T17:29:46.716Z,102232.75
2018-05-23T17:32:14.142Z,102230.70
2018-05-23T17:34:41.572Z,102237.57
2018-05-23T17:37:08.993Z,102233.70
2018-05-23T17:39:36.411Z,102241.58
2018-05-23T17:42:03.916Z,102234.61
2018-05-23T17:44:31.340Z,102231.77
2018-05-23T17:46:58.825Z,102237.84
2018-05-23T17:49:26.241Z,102240.34
2018-05-23T17:51:53.668Z,102244.52
2018-05-23T17:54:21.097Z,102237.86
2018-05-23T17:56:48.533Z,102240.50
2018-05-23T17:59:15.952Z,102241.27
2018-05-23T18:01:43.385Z,102242.42
2018-05-23T18:04:10.796Z,102249.84
2018-05-23T18:06:38.225Z,102247.42
2018-05-23T18:09:05.645Z,102250.67
2018-05-23T18:11:33.068Z,102251.67
2018-05-23T18:14:00.531Z,102256.91
2018-05-23T18:16:27.960Z,102246.34
2018-05-23T18:18:55.453Z,102246.09
2018-05-23T18:21:22.913Z,102258.57
2018-05-23T18:23:50.425Z,102252.08
2018-05-23T18:26:17.756Z,102264.92
2018-05-23T18:28:45.169Z,102267.68
2018-05-23T18:31:12.625Z,102264.34
2018-05-23T18:33:40.045Z,102268.50
2018-05-23T18:36:07.528Z,102268.01
2018-05-23T18:38:34.940Z,102265.50
2018-05-23T18:41:02.365Z,102268.62
2018-05-23T18:43:29.865Z,102267.87
2018-05-23T18:45:57.223Z,102271.84
2018-05-23T18:48:24.636Z,102274.22
2018-05-23T18:50:52.173Z,102269.77
2018-05-23T18:53:19.585Z,102278.12
2018-05-23T18:55:47.024Z,102287.63
2018-05-23T18:58:14.529Z,102283.52
2018-05-23T19:00:41.988Z,102279.59
2018-05-23T19:03:09.449Z,102278.69
2018-05-23T19:05:36.876Z,102285.08
2018-05-23T19:08:04.308Z,102286.19
2018-05-23T19:10:31.747Z,102288.55
2018-05-23T19:12:59.173Z,102294.69
2018-05-23T19:15:26.625Z,102291.98
2018-05-23T19:17:54.081Z,102288.28
2018-05-23T19:20:21.536Z,102290.20
2018-05-23T19:22:48.965Z,102294.16
2018-05-23T19:25:16.477Z,102297.23
2018-05-23T19:27:43.964Z,102299.60
2018-05-23T19:30:11.461Z,102298.28
2018-05-23T19:32:38.877Z,102298.92
2018-05-23T19:35:06.293Z,102295.53
2018-05-23T19:37:33.825Z,102302.17
2018-05-23T19:40:01.245Z,102299.72
2018-05-23T19:42:28.680Z,102306.23
2018-05-23T19:44:56.101Z,102305.66
2018-05-23T19:47:23.532Z,102314.48
2018-05-23T19:49:50.939Z,102321.27
2018-05-23T19:52:18.357Z,102322.34
2018-05-23T19:54:45.785Z,102315.98
2018-05-23T19:57:13.208Z,102327.22
2018-05-23T19:59:40.624Z,102322.08
2018-05-23T20:02:08.100Z,102320.53
2018-05-23T20:04:35.461Z,102318.91
2018-05-23T20:07:02.883Z,102325.07
2018-05-23T20:09:30.299Z,102322.49
2018-05-23T20:11:57.724Z,102321.29
2018-05-23T20:14:25.232Z,102322.78
2018-05-23T20:16:52.572Z,102317.36
2018-05-23T20:19:20.061Z,102325.53
2018-05-23T20:21:47.503Z,102330.69
2018-05-23T20:24:14.917Z,102326.72
2018-05-23T20:26:42.343Z,102330.67
2018-05-23T20:29:09.815Z,102331.37
2018-05-23T20:31:37.234Z,102330.80
2018-05-23T20:34:04.690Z,102333.86
2018-05-23T20:36:32.100Z,102338.16
2018-05-23T20:38:59.603Z,102339.28
2018-05-23T20:41:27.058Z,102341.75
2018-05-23T20:43:54.469Z,102338.48
2018-05-23T20:46:21.907Z,102341.31
2018-05-23T20:48:49.316Z,102343.43
2018-05-23T20:51:16.764Z,102347.46
2018-05-23T20:53:45.629Z,102348.30
2018-05-23T20:56:13.050Z,102348.28
2018-05-23T20:58:40.524Z,102347.58
2018-05-23T21:01:07.894Z,102343.74
2018-05-23T21:03:35.296Z,102346.06
2018-05-23T21:06:02.705Z,102345.70
2018-05-23T21:08:30.145Z,102352.97
2018-05-23T21:10:57.565Z,102359.92
2018-05-23T21:13:25.003Z,102364.30
2018-05-23T21:15:52.407Z,102356.45
2018-05-23T21:18:19.915Z,102352.23
2018-05-23T21:20:47.332Z,102362.19
2018-05-23T21:23:14.745Z,102368.92
2018-05-23T21:25:42.177Z,102367.44
2018-05-23T21:28:09.602Z,102368.76
2018-05-23T21:30:37.012Z,102370.16
2018-05-23T21:33:04.439Z,102364.42
2018-05-23T21:35:31.870Z,102364.59
2018-05-23T21:37:59.328Z,102365.45
2018-05-23T21:40:26.733Z,102357.98
2018-05-23T21:42:54.152Z,102359.59
2018-05-23T21:45:21.556Z,102356.25
2018-05-23T21:47:48.972Z,102355.87
2018-05-23T21:50:16.393Z,102359.55
2018-05-23T21:52:43.820Z,102356.32
2018-05-23T21:55:11.236Z,102357.63
2018-05-23T21:57:38.665Z,102359.70
2018-05-23T22:00:06.068Z,102362.63
2018-05-23T22:02:33.495Z,102357.70
2018-05-23T22:05:00.908Z,102363.05
2018-05-23T22:07:28.324Z,102363.39
2018-05-23T22:09:55.735Z,102366.48
2018-05-23T22:12:23.156Z,102367.12
2018-05-23T22:14:50.572Z,102363.97
2018-05-23T22:17:17.997Z,102362.27
2018-05-23T22:19:45.405Z,102367.44
2018-05-23T22:22:12.831Z,102365.36
2018-05-23T22:24:40.417Z,102368.72
2018-05-23T22:27:07.671Z,102369.90
2018-05-23T22:29:35.092Z,102367.83
2018-05-23T22:32:02.504Z,102365.08
2018-05-23T22:34:29.927Z,102362.89
2018-05-23T22:36:57.328Z,102367.97
2018-05-23T22:39:24.750Z,102370.31
2018-05-23T22:41:52.164Z,102364.08
2018-05-23T22:44:19.580Z,102363.09
2018-05-23T22:46:46.993Z,102362.63
2018-05-23T22:49:14.425Z,102364.77
2018-05-23T22:51:41.841Z,102362.53
2018-05-23T22:54:09.256Z,102359.88
2018-05-23T22:56:36.665Z,102363.66
2018-05-23T22:59:04.080Z,102361.08
2018-05-23T23:01:31.501Z,102364.87
2018-05-23T23:03:58.969Z,102366.09
2018-05-23T23:06:26.381Z,102366.51
2018-05-23T23:08:53.820Z,102366.14
2018-05-23T23:11:21.232Z,102366.91
2018-05-23T23:13:48.646Z,102368.83
2018-05-23T23:16:16.052Z,102371.11
2018-05-23T23:18:43.469Z,102377.33
2018-05-23T23:21:10.913Z,102374.00
2018-05-23T23:23:38.328Z,102377.02
2018-05-23T23:26:05.742Z,102375.91
2018-05-23T23:28:33.166Z,102368.68
2018-05-23T23:31:00.570Z,102373.02
2018-05-23T23:33:27.985Z,102368.72
2018-05-23T23:35:55.389Z,102367.24
2018-05-23T23:38:22.825Z,102368.48
2018-05-23T23:40:50.232Z,102370.02
2018-05-23T23:43:17.644Z,102367.67
2018-05-23T23:45:45.093Z,102368.41
2018-05-23T23:48:12.512Z,102370.05
2018-05-23T23:50:39.916Z,102360.23
2018-05-23T23:53:07.351Z,102367.38
2018-05-23T23:55:34.762Z,102374.60
2018-05-23T23:58:02.178Z,102373.66
